sensor_id;sensor_type;location;lat;lon;timestamp;temperature;humidity
60701;DHT22;46541;49.894;10.886;2023-02-19T00:01:15;10.60;99.90
60701;DHT22;46541;49.894;10.886;2023-02-19T00:03:46;10.70;99.90
60701;DHT22;46541;49.894;10.886;2023-02-19T00:06:13;10.60;99.90
60701;DHT22;46541;49.894;10.886;2023-02-19T00:08:40;10.70;99.90
60701;DHT22;46541;49.894;10.886;2023-02-19T00:11:11;10.70;99.90
60701;DHT22;46541;49.894;10.886;2023-02-19T00:13:41;10.70;99.90
60701;DHT22;46541;49.894;10.886;2023-02-19T00:16:31;10.70;99.90
60701;DHT22;46541;49.894;10.886;2023-02-19T00:18:57;10.70;99.90
60701;DHT22;46541;49.894;10.886;2023-02-19T00:21:25;10.70;99.90
60701;DHT22;46541;49.894;10.886;2023-02-19T00:23:57;10.70;99.90
60701;DHT22;46541;49.894;10.886;2023-02-19T00:26:24;10.70;99.90
60701;DHT22;46541;49.894;10.886;2023-02-19T00:28:52;10.70;99.90
60701;DHT22;46541;49.894;10.886;2023-02-19T00:31:27;10.70;99.90
60701;DHT22;46541;49.894;10.886;2023-02-19T00:34:00;10.70;99.90
60701;DHT22;46541;49.894;10.886;2023-02-19T00:36:28;10.60;99.90
60701;DHT22;46541;49.894;10.886;2023-02-19T00:38:56;10.70;99.90
60701;DHT22;46541;49.894;10.886;2023-02-19T00:41:25;10.70;99.90
60701;DHT22;46541;49.894;10.886;2023-02-19T00:43:53;10.70;99.90
60701;DHT22;46541;49.894;10.886;2023-02-19T00:46:23;10.70;99.90
60701;DHT22;46541;49.894;10.886;2023-02-19T00:48:51;10.70;99.90
60701;DHT22;46541;49.894;10.886;2023-02-19T00:51:19;10.70;99.90
60701;DHT22;46541;49.894;10.886;2023-02-19T00:53:46;10.70;99.90
60701;DHT22;46541;49.894;10.886;2023-02-19T00:56:13;10.60;99.90
60701;DHT22;46541;49.894;10.886;2023-02-19T00:58:40;10.60;99.90
60701;DHT22;46541;49.894;10.886;2023-02-19T01:01:08;10.60;99.90
60701;DHT22;46541;49.894;10.886;2023-02-19T01:03:36;10.60;99.90
60701;DHT22;46541;49.894;10.886;2023-02-19T01:06:04;10.60;99.90
60701;DHT22;46541;49.894;10.886;2023-02-19T01:08:31;10.60;99.90
60701;DHT22;46541;49.894;10.886;2023-02-19T01:10:59;10.60;99.90
60701;DHT22;46541;49.894;10.886;2023-02-19T01:13:27;10.60;99.90
60701;DHT22;46541;49.894;10.886;2023-02-19T01:16:06;10.50;99.90
60701;DHT22;46541;49.894;10.886;2023-02-19T01:18:33;10.50;99.90
60701;DHT22;46541;49.894;10.886;2023-02-19T01:21:04;10.50;99.90
60701;DHT22;46541;49.894;10.886;2023-02-19T01:23:33;10.40;99.90
60701;DHT22;46541;49.894;10.886;2023-02-19T01:26:06;10.40;99.90
60701;DHT22;46541;49.894;10.886;2023-02-19T01:28:33;10.30;99.90
60701;DHT22;46541;49.894;10.886;2023-02-19T01:31:04;10.30;99.90
60701;DHT22;46541;49.894;10.886;2023-02-19T01:33:32;10.30;99.90
60701;DHT22;46541;49.894;10.886;2023-02-19T01:36:01;10.20;99.90
60701;DHT22;46541;49.894;10.886;2023-02-19T01:38:28;10.30;99.90
60701;DHT22;46541;49.894;10.886;2023-02-19T01:40:57;10.20;99.90
60701;DHT22;46541;49.894;10.886;2023-02-19T01:43:24;10.20;99.90
60701;DHT22;46541;49.894;10.886;2023-02-19T01:45:51;10.20;99.90
60701;DHT22;46541;49.894;10.886;2023-02-19T01:51:04;10.20;99.90
60701;DHT22;46541;49.894;10.886;2023-02-19T01:53:36;10.20;99.90
60701;DHT22;46541;49.894;10.886;2023-02-19T01:56:03;10.20;99.90
60701;DHT22;46541;49.894;10.886;2023-02-19T01:58:33;10.20;99.90
60701;DHT22;46541;49.894;10.886;2023-02-19T02:01:02;10.20;99.90
60701;DHT22;46541;49.894;10.886;2023-02-19T02:03:30;10.10;99.90
60701;DHT22;46541;49.894;10.886;2023-02-19T02:06:04;10.20;99.90
60701;DHT22;46541;49.894;10.886;2023-02-19T02:08:33;10.20;99.90
60701;DHT22;46541;49.894;10.886;2023-02-19T02:11:19;10.20;99.90
60701;DHT22;46541;49.894;10.886;2023-02-19T02:13:46;10.20;99.90
60701;DHT22;46541;49.894;10.886;2023-02-19T02:16:53;10.20;99.90
60701;DHT22;46541;49.894;10.886;2023-02-19T02:22:21;10.20;99.90
60701;DHT22;46541;49.894;10.886;2023-02-19T02:36:05;10.10;99.90
60701;DHT22;46541;49.894;10.886;2023-02-19T02:38:36;10.10;99.90
60701;DHT22;46541;49.894;10.886;2023-02-19T02:41:04;10.00;99.90
60701;DHT22;46541;49.894;10.886;2023-02-19T02:43:31;10.00;99.90
60701;DHT22;46541;49.894;10.886;2023-02-19T02:45:58;9.90;99.90
60701;DHT22;46541;49.894;10.886;2023-02-19T02:53:56;9.90;99.90
60701;DHT22;46541;49.894;10.886;2023-02-19T02:56:42;9.90;99.90
60701;DHT22;46541;49.894;10.886;2023-02-19T02:59:11;10.00;99.90
60701;DHT22;46541;49.894;10.886;2023-02-19T03:01:42;10.00;99.90
60701;DHT22;46541;49.894;10.886;2023-02-19T03:07:32;10.00;99.90
60701;DHT22;46541;49.894;10.886;2023-02-19T03:10:05;10.10;99.90
60701;DHT22;46541;49.894;10.886;2023-02-19T03:12:35;10.00;99.90
60701;DHT22;46541;49.894;10.886;2023-02-19T03:15:28;10.10;99.90
60701;DHT22;46541;49.894;10.886;2023-02-19T03:18:17;10.10;99.90
60701;DHT22;46541;49.894;10.886;2023-02-19T03:21:04;10.00;99.90
60701;DHT22;46541;49.894;10.886;2023-02-19T03:23:34;10.10;99.90
60701;DHT22;46541;49.894;10.886;2023-02-19T03:26:20;10.10;99.90
60701;DHT22;46541;49.894;10.886;2023-02-19T03:28:49;10.10;99.90
60701;DHT22;46541;49.894;10.886;2023-02-19T03:31:37;10.10;99.90
60701;DHT22;46541;49.894;10.886;2023-02-19T03:34:09;10.10;99.90
60701;DHT22;46541;49.894;10.886;2023-02-19T03:36:44;10.00;99.90
60701;DHT22;46541;49.894;10.886;2023-02-19T03:39:14;10.10;99.90
60701;DHT22;46541;49.894;10.886;2023-02-19T03:42:29;10.10;99.90
60701;DHT22;46541;49.894;10.886;2023-02-19T03:48:16;10.10;99.90
60701;DHT22;46541;49.894;10.886;2023-02-19T03:53:29;10.20;99.90
60701;DHT22;46541;49.894;10.886;2023-02-19T03:56:08;10.20;99.90
60701;DHT22;46541;49.894;10.886;2023-02-19T04:04:05;10.10;99.90
60701;DHT22;46541;49.894;10.886;2023-02-19T04:06:35;10.20;99.90
60701;DHT22;46541;49.894;10.886;2023-02-19T04:09:06;10.20;99.90
60701;DHT22;46541;49.894;10.886;2023-02-19T04:11:35;10.20;99.90
60701;DHT22;46541;49.894;10.886;2023-02-19T04:16:52;10.20;99.90
60701;DHT22;46541;49.894;10.886;2023-02-19T04:19:23;10.20;99.90
60701;DHT22;46541;49.894;10.886;2023-02-19T04:21:53;10.10;99.90
60701;DHT22;46541;49.894;10.886;2023-02-19T04:24:26;10.10;99.90
60701;DHT22;46541;49.894;10.886;2023-02-19T04:26:54;10.10;99.90
60701;DHT22;46541;49.894;10.886;2023-02-19T04:29:21;10.10;99.90
60701;DHT22;46541;49.894;10.886;2023-02-19T04:31:48;10.10;99.90
60701;DHT22;46541;49.894;10.886;2023-02-19T04:34:14;10.10;99.90
60701;DHT22;46541;49.894;10.886;2023-02-19T04:36:41;10.10;99.90
60701;DHT22;46541;49.894;10.886;2023-02-19T04:39:08;10.20;99.90
60701;DHT22;46541;49.894;10.886;2023-02-19T04:41:34;10.20;99.90
60701;DHT22;46541;49.894;10.886;2023-02-19T04:44:01;10.10;99.90
60701;DHT22;46541;49.894;10.886;2023-02-19T04:46:28;10.10;99.90
60701;DHT22;46541;49.894;10.886;2023-02-19T04:48:55;10.10;99.90
60701;DHT22;46541;49.894;10.886;2023-02-19T04:51:21;10.10;99.90
60701;DHT22;46541;49.894;10.886;2023-02-19T04:53:48;10.10;99.90
60701;DHT22;46541;49.894;10.886;2023-02-19T04:56:15;10.10;99.90
60701;DHT22;46541;49.894;10.886;2023-02-19T04:58:44;10.10;99.90
60701;DHT22;46541;49.894;10.886;2023-02-19T05:01:11;10.10;99.90
60701;DHT22;46541;49.894;10.886;2023-02-19T05:03:38;10.10;99.90
60701;DHT22;46541;49.894;10.886;2023-02-19T05:06:08;10.10;99.90
60701;DHT22;46541;49.894;10.886;2023-02-19T05:08:36;10.20;99.90
60701;DHT22;46541;49.894;10.886;2023-02-19T05:11:04;10.20;99.90
60701;DHT22;46541;49.894;10.886;2023-02-19T05:13:31;10.20;99.90
60701;DHT22;46541;49.894;10.886;2023-02-19T05:16:01;10.20;99.90
60701;DHT22;46541;49.894;10.886;2023-02-19T05:18:29;10.20;99.90
60701;DHT22;46541;49.894;10.886;2023-02-19T05:20:57;10.20;99.90
60701;DHT22;46541;49.894;10.886;2023-02-19T05:23:25;10.10;99.90
60701;DHT22;46541;49.894;10.886;2023-02-19T05:25:52;10.10;99.90
60701;DHT22;46541;49.894;10.886;2023-02-19T05:28:19;10.10;99.90
60701;DHT22;46541;49.894;10.886;2023-02-19T05:30:51;10.20;99.90
60701;DHT22;46541;49.894;10.886;2023-02-19T05:33:20;10.10;99.90
60701;DHT22;46541;49.894;10.886;2023-02-19T05:35:52;10.20;99.90
60701;DHT22;46541;49.894;10.886;2023-02-19T05:38:19;10.10;99.90
60701;DHT22;46541;49.894;10.886;2023-02-19T05:40:47;10.10;99.90
60701;DHT22;46541;49.894;10.886;2023-02-19T05:43:14;10.10;99.90
60701;DHT22;46541;49.894;10.886;2023-02-19T05:45:41;10.20;99.90
60701;DHT22;46541;49.894;10.886;2023-02-19T05:48:10;10.20;99.90
60701;DHT22;46541;49.894;10.886;2023-02-19T05:50:38;10.20;99.90
60701;DHT22;46541;49.894;10.886;2023-02-19T05:53:05;10.20;99.90
60701;DHT22;46541;49.894;10.886;2023-02-19T05:55:35;10.20;99.90
60701;DHT22;46541;49.894;10.886;2023-02-19T05:58:02;10.20;99.90
60701;DHT22;46541;49.894;10.886;2023-02-19T06:00:30;10.20;99.90
60701;DHT22;46541;49.894;10.886;2023-02-19T06:02:57;10.20;99.90
60701;DHT22;46541;49.894;10.886;2023-02-19T06:05:24;10.20;99.90
60701;DHT22;46541;49.894;10.886;2023-02-19T06:07:51;10.20;99.90
60701;DHT22;46541;49.894;10.886;2023-02-19T06:10:18;10.20;99.90
60701;DHT22;46541;49.894;10.886;2023-02-19T06:12:45;10.20;99.90
60701;DHT22;46541;49.894;10.886;2023-02-19T06:15:11;10.20;99.90
60701;DHT22;46541;49.894;10.886;2023-02-19T06:17:38;10.20;99.90
60701;DHT22;46541;49.894;10.886;2023-02-19T06:20:05;10.30;99.90
60701;DHT22;46541;49.894;10.886;2023-02-19T06:22:32;10.30;99.90
60701;DHT22;46541;49.894;10.886;2023-02-19T06:24:59;10.20;99.90
60701;DHT22;46541;49.894;10.886;2023-02-19T06:27:25;10.30;99.90
60701;DHT22;46541;49.894;10.886;2023-02-19T06:29:52;10.30;99.90
60701;DHT22;46541;49.894;10.886;2023-02-19T06:32:19;10.20;99.90
60701;DHT22;46541;49.894;10.886;2023-02-19T06:34:46;10.20;99.90
60701;DHT22;46541;49.894;10.886;2023-02-19T06:37:12;10.30;99.90
60701;DHT22;46541;49.894;10.886;2023-02-19T06:39:39;10.30;99.90
60701;DHT22;46541;49.894;10.886;2023-02-19T06:42:06;10.30;99.90
60701;DHT22;46541;49.894;10.886;2023-02-19T06:44:32;10.30;99.90
60701;DHT22;46541;49.894;10.886;2023-02-19T06:46:59;10.30;99.90
60701;DHT22;46541;49.894;10.886;2023-02-19T06:49:26;10.30;99.90
60701;DHT22;46541;49.894;10.886;2023-02-19T06:51:53;10.30;99.90
60701;DHT22;46541;49.894;10.886;2023-02-19T06:54:19;10.30;99.90
60701;DHT22;46541;49.894;10.886;2023-02-19T06:56:46;10.40;99.90
60701;DHT22;46541;49.894;10.886;2023-02-19T06:59:14;10.30;99.90
60701;DHT22;46541;49.894;10.886;2023-02-19T07:01:45;10.40;99.90
60701;DHT22;46541;49.894;10.886;2023-02-19T07:04:11;10.40;99.90
60701;DHT22;46541;49.894;10.886;2023-02-19T07:06:38;10.40;99.90
60701;DHT22;46541;49.894;10.886;2023-02-19T07:09:07;10.40;99.90
60701;DHT22;46541;49.894;10.886;2023-02-19T07:11:35;10.40;99.90
60701;DHT22;46541;49.894;10.886;2023-02-19T07:14:06;10.40;99.90
60701;DHT22;46541;49.894;10.886;2023-02-19T07:16:33;10.40;99.90
60701;DHT22;46541;49.894;10.886;2023-02-19T07:19:01;10.40;99.90
60701;DHT22;46541;49.894;10.886;2023-02-19T07:21:28;10.50;99.90
60701;DHT22;46541;49.894;10.886;2023-02-19T07:23:56;10.50;99.90
60701;DHT22;46541;49.894;10.886;2023-02-19T07:26:23;10.40;99.90
60701;DHT22;46541;49.894;10.886;2023-02-19T07:28:50;10.40;99.90
60701;DHT22;46541;49.894;10.886;2023-02-19T07:31:19;10.50;99.90
60701;DHT22;46541;49.894;10.886;2023-02-19T07:33:46;10.50;99.90
60701;DHT22;46541;49.894;10.886;2023-02-19T07:36:14;10.50;99.90
60701;DHT22;46541;49.894;10.886;2023-02-19T07:38:42;10.50;99.90
60701;DHT22;46541;49.894;10.886;2023-02-19T07:41:09;10.60;99.90
60701;DHT22;46541;49.894;10.886;2023-02-19T07:43:37;10.60;99.90
60701;DHT22;46541;49.894;10.886;2023-02-19T07:46:09;10.50;99.90
60701;DHT22;46541;49.894;10.886;2023-02-19T07:48:38;10.50;99.90
60701;DHT22;46541;49.894;10.886;2023-02-19T07:51:06;10.50;99.90
60701;DHT22;46541;49.894;10.886;2023-02-19T07:53:34;10.50;99.90
60701;DHT22;46541;49.894;10.886;2023-02-19T07:56:05;10.50;99.90
60701;DHT22;46541;49.894;10.886;2023-02-19T07:58:33;10.50;99.90
60701;DHT22;46541;49.894;10.886;2023-02-19T08:01:20;10.60;99.90
60701;DHT22;46541;49.894;10.886;2023-02-19T08:04:08;10.60;99.90
60701;DHT22;46541;49.894;10.886;2023-02-19T08:06:34;10.60;99.90
60701;DHT22;46541;49.894;10.886;2023-02-19T08:09:02;10.60;99.90
60701;DHT22;46541;49.894;10.886;2023-02-19T08:11:29;10.60;99.90
60701;DHT22;46541;49.894;10.886;2023-02-19T08:14:15;10.60;99.90
60701;DHT22;46541;49.894;10.886;2023-02-19T08:16:51;10.70;99.90
60701;DHT22;46541;49.894;10.886;2023-02-19T08:19:18;10.70;99.90
60701;DHT22;46541;49.894;10.886;2023-02-19T08:21:45;10.80;99.90
60701;DHT22;46541;49.894;10.886;2023-02-19T08:24:11;10.70;99.90
60701;DHT22;46541;49.894;10.886;2023-02-19T08:26:38;10.80;99.90
60701;DHT22;46541;49.894;10.886;2023-02-19T08:29:05;10.80;99.90
60701;DHT22;46541;49.894;10.886;2023-02-19T08:31:33;10.90;99.90
60701;DHT22;46541;49.894;10.886;2023-02-19T08:34:00;11.00;99.90
60701;DHT22;46541;49.894;10.886;2023-02-19T08:36:26;11.10;99.90
60701;DHT22;46541;49.894;10.886;2023-02-19T08:38:53;11.10;99.90
60701;DHT22;46541;49.894;10.886;2023-02-19T08:41:20;11.10;99.90
60701;DHT22;46541;49.894;10.886;2023-02-19T08:43:47;11.10;99.90
60701;DHT22;46541;49.894;10.886;2023-02-19T08:46:15;11.10;99.90
60701;DHT22;46541;49.894;10.886;2023-02-19T08:48:41;11.20;99.90
60701;DHT22;46541;49.894;10.886;2023-02-19T08:51:10;11.20;99.90
60701;DHT22;46541;49.894;10.886;2023-02-19T08:53:39;11.20;99.90
60701;DHT22;46541;49.894;10.886;2023-02-19T08:56:08;11.30;99.90
60701;DHT22;46541;49.894;10.886;2023-02-19T08:58:35;11.30;99.90
60701;DHT22;46541;49.894;10.886;2023-02-19T09:01:07;11.50;99.90
60701;DHT22;46541;49.894;10.886;2023-02-19T09:03:35;11.50;99.90
60701;DHT22;46541;49.894;10.886;2023-02-19T09:06:02;11.50;99.90
60701;DHT22;46541;49.894;10.886;2023-02-19T09:08:29;11.60;99.90
60701;DHT22;46541;49.894;10.886;2023-02-19T09:11:00;11.70;99.90
60701;DHT22;46541;49.894;10.886;2023-02-19T09:13:27;11.80;99.90
60701;DHT22;46541;49.894;10.886;2023-02-19T09:15:55;11.70;99.90
60701;DHT22;46541;49.894;10.886;2023-02-19T09:18:24;11.80;99.90
60701;DHT22;46541;49.894;10.886;2023-02-19T09:20:50;11.70;99.90
60701;DHT22;46541;49.894;10.886;2023-02-19T09:23:17;11.60;99.90
60701;DHT22;46541;49.894;10.886;2023-02-19T09:25:44;11.60;99.90
60701;DHT22;46541;49.894;10.886;2023-02-19T09:28:11;11.40;99.90
60701;DHT22;46541;49.894;10.886;2023-02-19T09:30:38;11.40;99.90
60701;DHT22;46541;49.894;10.886;2023-02-19T09:33:04;11.30;99.90
60701;DHT22;46541;49.894;10.886;2023-02-19T09:35:31;11.20;99.90
60701;DHT22;46541;49.894;10.886;2023-02-19T09:37:59;11.20;99.90
60701;DHT22;46541;49.894;10.886;2023-02-19T09:40:26;11.20;99.90
60701;DHT22;46541;49.894;10.886;2023-02-19T09:42:53;11.10;99.90
60701;DHT22;46541;49.894;10.886;2023-02-19T09:45:24;11.10;99.90
60701;DHT22;46541;49.894;10.886;2023-02-19T09:47:56;11.00;99.90
60701;DHT22;46541;49.894;10.886;2023-02-19T09:50:53;11.00;99.90
60701;DHT22;46541;49.894;10.886;2023-02-19T09:53:23;10.90;99.90
60701;DHT22;46541;49.894;10.886;2023-02-19T09:55:51;11.00;99.90
60701;DHT22;46541;49.894;10.886;2023-02-19T09:58:39;10.90;99.90
60701;DHT22;46541;49.894;10.886;2023-02-19T10:01:09;10.80;99.90
60701;DHT22;46541;49.894;10.886;2023-02-19T10:03:39;10.90;99.90
60701;DHT22;46541;49.894;10.886;2023-02-19T10:06:15;10.90;99.90
60701;DHT22;46541;49.894;10.886;2023-02-19T10:08:46;11.00;99.90
60701;DHT22;46541;49.894;10.886;2023-02-19T10:11:15;11.10;99.90
60701;DHT22;46541;49.894;10.886;2023-02-19T10:13:56;11.10;99.90
60701;DHT22;46541;49.894;10.886;2023-02-19T10:16:28;11.00;99.90
60701;DHT22;46541;49.894;10.886;2023-02-19T10:18:55;11.00;99.90
60701;DHT22;46541;49.894;10.886;2023-02-19T10:21:26;11.10;99.90
60701;DHT22;46541;49.894;10.886;2023-02-19T10:23:56;11.20;99.90
60701;DHT22;46541;49.894;10.886;2023-02-19T10:26:23;11.20;99.90
60701;DHT22;46541;49.894;10.886;2023-02-19T10:28:50;11.30;99.90
60701;DHT22;46541;49.894;10.886;2023-02-19T10:31:20;11.40;99.90
60701;DHT22;46541;49.894;10.886;2023-02-19T10:33:50;11.40;99.90
60701;DHT22;46541;49.894;10.886;2023-02-19T10:36:26;11.40;99.90
60701;DHT22;46541;49.894;10.886;2023-02-19T10:38:58;11.50;99.90
60701;DHT22;46541;49.894;10.886;2023-02-19T10:41:26;11.50;99.90
60701;DHT22;46541;49.894;10.886;2023-02-19T10:44:05;11.50;99.90
60701;DHT22;46541;49.894;10.886;2023-02-19T10:46:36;11.50;99.90
60701;DHT22;46541;49.894;10.886;2023-02-19T10:51:47;11.50;99.90
60701;DHT22;46541;49.894;10.886;2023-02-19T10:54:33;11.70;99.90
60701;DHT22;46541;49.894;10.886;2023-02-19T10:57:26;12.00;99.90
60701;DHT22;46541;49.894;10.886;2023-02-19T11:00:04;12.10;99.90
60701;DHT22;46541;49.894;10.886;2023-02-19T11:02:38;12.00;99.90
60701;DHT22;46541;49.894;10.886;2023-02-19T11:07:32;12.00;99.90
60701;DHT22;46541;49.894;10.886;2023-02-19T11:09:59;12.30;99.90
60701;DHT22;46541;49.894;10.886;2023-02-19T11:12:29;12.40;99.90
60701;DHT22;46541;49.894;10.886;2023-02-19T11:14:56;12.70;99.90
60701;DHT22;46541;49.894;10.886;2023-02-19T11:17:28;12.90;99.90
60701;DHT22;46541;49.894;10.886;2023-02-19T11:19:58;12.90;99.90
60701;DHT22;46541;49.894;10.886;2023-02-19T11:22:33;13.00;99.90
60701;DHT22;46541;49.894;10.886;2023-02-19T11:27:54;13.00;99.90
60701;DHT22;46541;49.894;10.886;2023-02-19T11:30:32;12.90;99.90
60701;DHT22;46541;49.894;10.886;2023-02-19T11:35:39;12.50;99.90
60701;DHT22;46541;49.894;10.886;2023-02-19T11:38:09;12.30;99.90
60701;DHT22;46541;49.894;10.886;2023-02-19T11:40:43;12.40;99.90
60701;DHT22;46541;49.894;10.886;2023-02-19T11:46:07;12.40;99.90
60701;DHT22;46541;49.894;10.886;2023-02-19T11:51:56;12.40;99.90
60701;DHT22;46541;49.894;10.886;2023-02-19T11:54:46;12.30;99.90
60701;DHT22;46541;49.894;10.886;2023-02-19T11:57:18;12.50;99.90
60701;DHT22;46541;49.894;10.886;2023-02-19T12:05:57;12.50;99.90
60701;DHT22;46541;49.894;10.886;2023-02-19T12:09:44;12.60;99.90
60701;DHT22;46541;49.894;10.886;2023-02-19T12:11:48;12.70;99.90
60701;DHT22;46541;49.894;10.886;2023-02-19T12:17:29;12.50;99.90
60701;DHT22;46541;49.894;10.886;2023-02-19T12:20:27;12.50;99.90
60701;DHT22;46541;49.894;10.886;2023-02-19T12:23:13;12.60;99.90
60701;DHT22;46541;49.894;10.886;2023-02-19T12:26:28;12.40;99.90
60701;DHT22;46541;49.894;10.886;2023-02-19T12:34:30;12.50;99.90
60701;DHT22;46541;49.894;10.886;2023-02-19T12:37:14;12.90;99.90
60701;DHT22;46541;49.894;10.886;2023-02-19T12:43:00;13.40;99.90
60701;DHT22;46541;49.894;10.886;2023-02-19T12:45:53;13.40;99.90
60701;DHT22;46541;49.894;10.886;2023-02-19T12:48:44;13.20;99.90
60701;DHT22;46541;49.894;10.886;2023-02-19T12:54:36;13.10;99.90
60701;DHT22;46541;49.894;10.886;2023-02-19T12:57:23;13.00;99.90
60701;DHT22;46541;49.894;10.886;2023-02-19T12:59:57;12.80;99.90
60701;DHT22;46541;49.894;10.886;2023-02-19T13:02:42;12.50;99.90
60701;DHT22;46541;49.894;10.886;2023-02-19T13:05:23;12.50;99.90
60701;DHT22;46541;49.894;10.886;2023-02-19T13:08:03;12.50;99.90
60701;DHT22;46541;49.894;10.886;2023-02-19T13:10:56;12.40;99.90
60701;DHT22;46541;49.894;10.886;2023-02-19T13:13:38;12.50;99.90
60701;DHT22;46541;49.894;10.886;2023-02-19T13:16:10;12.40;99.90
60701;DHT22;46541;49.894;10.886;2023-02-19T13:21:15;12.30;99.90
60701;DHT22;46541;49.894;10.886;2023-02-19T13:24:06;12.30;99.90
60701;DHT22;46541;49.894;10.886;2023-02-19T13:32:23;12.30;99.90
60701;DHT22;46541;49.894;10.886;2023-02-19T13:37:37;12.60;99.90
60701;DHT22;46541;49.894;10.886;2023-02-19T13:42:54;12.60;99.90
60701;DHT22;46541;49.894;10.886;2023-02-19T13:45:30;12.50;99.90
60701;DHT22;46541;49.894;10.886;2023-02-19T13:48:00;12.40;99.90
60701;DHT22;46541;49.894;10.886;2023-02-19T13:50:31;12.20;99.90
60701;DHT22;46541;49.894;10.886;2023-02-19T13:53:00;12.20;99.90
60701;DHT22;46541;49.894;10.886;2023-02-19T14:01:06;12.50;99.90
60701;DHT22;46541;49.894;10.886;2023-02-19T14:03:55;12.40;99.90
60701;DHT22;46541;49.894;10.886;2023-02-19T14:14:54;12.20;99.90
60701;DHT22;46541;49.894;10.886;2023-02-19T14:17:25;12.20;99.90
60701;DHT22;46541;49.894;10.886;2023-02-19T14:19:55;12.10;99.90
60701;DHT22;46541;49.894;10.886;2023-02-19T14:27:49;12.20;99.90
60701;DHT22;46541;49.894;10.886;2023-02-19T14:30:17;12.30;99.90
60701;DHT22;46541;49.894;10.886;2023-02-19T14:32:44;12.30;99.90
60701;DHT22;46541;49.894;10.886;2023-02-19T14:35:18;12.30;99.90
60701;DHT22;46541;49.894;10.886;2023-02-19T14:37:47;12.20;99.90
60701;DHT22;46541;49.894;10.886;2023-02-19T14:40:38;12.20;99.90
60701;DHT22;46541;49.894;10.886;2023-02-19T14:43:11;12.30;99.90
60701;DHT22;46541;49.894;10.886;2023-02-19T14:45:42;12.30;99.90
60701;DHT22;46541;49.894;10.886;2023-02-19T14:48:25;12.30;99.90
60701;DHT22;46541;49.894;10.886;2023-02-19T14:50:57;12.40;99.90
60701;DHT22;46541;49.894;10.886;2023-02-19T14:53:24;12.50;99.90
60701;DHT22;46541;49.894;10.886;2023-02-19T14:55:54;12.50;99.90
60701;DHT22;46541;49.894;10.886;2023-02-19T14:58:29;12.40;99.90
60701;DHT22;46541;49.894;10.886;2023-02-19T15:00:57;12.30;99.90
60701;DHT22;46541;49.894;10.886;2023-02-19T15:03:31;12.30;99.90
60701;DHT22;46541;49.894;10.886;2023-02-19T15:06:04;12.20;99.90
60701;DHT22;46541;49.894;10.886;2023-02-19T15:08:44;12.10;99.90
60701;DHT22;46541;49.894;10.886;2023-02-19T15:11:18;12.10;99.90
60701;DHT22;46541;49.894;10.886;2023-02-19T15:13:51;12.10;99.90
60701;DHT22;46541;49.894;10.886;2023-02-19T15:16:21;12.10;99.90
60701;DHT22;46541;49.894;10.886;2023-02-19T15:18:51;12.00;99.90
60701;DHT22;46541;49.894;10.886;2023-02-19T15:21:30;11.90;99.90
60701;DHT22;46541;49.894;10.886;2023-02-19T15:24:02;11.90;99.90
60701;DHT22;46541;49.894;10.886;2023-02-19T15:26:39;11.80;99.90
60701;DHT22;46541;49.894;10.886;2023-02-19T15:29:10;11.80;99.90
60701;DHT22;46541;49.894;10.886;2023-02-19T15:34:16;11.80;99.90
60701;DHT22;46541;49.894;10.886;2023-02-19T15:36:43;11.60;99.90
60701;DHT22;46541;49.894;10.886;2023-02-19T15:39:25;11.70;99.90
60701;DHT22;46541;49.894;10.886;2023-02-19T15:41:58;11.70;99.90
60701;DHT22;46541;49.894;10.886;2023-02-19T15:46:53;11.70;99.90
60701;DHT22;46541;49.894;10.886;2023-02-19T15:49:24;11.70;99.90
60701;DHT22;46541;49.894;10.886;2023-02-19T15:52:07;11.70;99.90
60701;DHT22;46541;49.894;10.886;2023-02-19T15:54:50;11.70;99.90
60701;DHT22;46541;49.894;10.886;2023-02-19T15:57:23;11.70;99.90
60701;DHT22;46541;49.894;10.886;2023-02-19T16:00:37;11.70;99.90
60701;DHT22;46541;49.894;10.886;2023-02-19T16:02:57;11.70;99.90
60701;DHT22;46541;49.894;10.886;2023-02-19T16:05:25;11.70;99.90
60701;DHT22;46541;49.894;10.886;2023-02-19T16:10:34;11.70;99.90
60701;DHT22;46541;49.894;10.886;2023-02-19T16:13:03;11.70;99.90
60701;DHT22;46541;49.894;10.886;2023-02-19T16:15:31;11.60;99.90
60701;DHT22;46541;49.894;10.886;2023-02-19T16:17:59;11.60;99.90
60701;DHT22;46541;49.894;10.886;2023-02-19T16:20:31;11.50;99.90
60701;DHT22;46541;49.894;10.886;2023-02-19T16:23:18;11.50;99.90
60701;DHT22;46541;49.894;10.886;2023-02-19T16:26:01;11.40;99.90
60701;DHT22;46541;49.894;10.886;2023-02-19T16:28:32;11.40;99.90
60701;DHT22;46541;49.894;10.886;2023-02-19T16:31:08;11.30;99.90
60701;DHT22;46541;49.894;10.886;2023-02-19T16:33:42;11.30;99.90
60701;DHT22;46541;49.894;10.886;2023-02-19T16:46:54;11.10;99.90
60701;DHT22;46541;49.894;10.886;2023-02-19T16:49:23;11.10;99.90
60701;DHT22;46541;49.894;10.886;2023-02-19T16:51:50;11.10;99.90
60701;DHT22;46541;49.894;10.886;2023-02-19T16:54:16;11.10;99.90
60701;DHT22;46541;49.894;10.886;2023-02-19T16:56:43;11.00;99.90
60701;DHT22;46541;49.894;10.886;2023-02-19T16:59:10;11.00;99.90
60701;DHT22;46541;49.894;10.886;2023-02-19T17:01:37;11.00;99.90
60701;DHT22;46541;49.894;10.886;2023-02-19T17:04:07;11.00;99.90
60701;DHT22;46541;49.894;10.886;2023-02-19T17:06:34;11.00;99.90
60701;DHT22;46541;49.894;10.886;2023-02-19T17:09:04;11.00;99.90
60701;DHT22;46541;49.894;10.886;2023-02-19T17:11:32;11.00;99.90
60701;DHT22;46541;49.894;10.886;2023-02-19T17:13:58;11.00;99.90
60701;DHT22;46541;49.894;10.886;2023-02-19T17:16:28;11.00;99.90
60701;DHT22;46541;49.894;10.886;2023-02-19T17:18:55;11.00;99.90
60701;DHT22;46541;49.894;10.886;2023-02-19T17:21:24;11.00;99.90
60701;DHT22;46541;49.894;10.886;2023-02-19T17:23:51;11.00;99.90
60701;DHT22;46541;49.894;10.886;2023-02-19T17:26:21;11.00;99.90
60701;DHT22;46541;49.894;10.886;2023-02-19T17:28:48;11.00;99.90
60701;DHT22;46541;49.894;10.886;2023-02-19T17:31:16;11.00;99.90
60701;DHT22;46541;49.894;10.886;2023-02-19T17:33:43;10.90;99.90
60701;DHT22;46541;49.894;10.886;2023-02-19T17:36:21;10.90;99.90
60701;DHT22;46541;49.894;10.886;2023-02-19T17:38:49;10.90;99.90
60701;DHT22;46541;49.894;10.886;2023-02-19T17:41:15;10.90;99.90
60701;DHT22;46541;49.894;10.886;2023-02-19T17:43:42;10.90;99.90
60701;DHT22;46541;49.894;10.886;2023-02-19T17:46:14;10.90;99.90
60701;DHT22;46541;49.894;10.886;2023-02-19T17:48:41;10.90;99.90
60701;DHT22;46541;49.894;10.886;2023-02-19T17:51:08;10.90;99.90